createdAt,value
2019-05-16T00:02:08.066Z,102583.28
2019-05-16T00:05:15.918Z,102573.89
2019-05-16T00:08:24.564Z,102576.73
2019-05-16T00:11:33.178Z,102573.58
2019-05-16T00:14:41.778Z,102568.48
2019-05-16T00:17:50.538Z,102559.07
2019-05-16T00:20:59.019Z,102561.55
2019-05-16T00:24:08.284Z,102556.51
2019-05-16T00:27:18.570Z,102555.87
2019-05-16T00:30:28.850Z,102553.62
2019-05-16T00:33:38.015Z,102541.47
2019-05-16T00:36:48.658Z,102547.69
2019-05-16T00:39:58.784Z,102537.59
2019-05-16T00:43:08.049Z,102543.22
2019-05-16T00:46:27.959Z,102539.45
2019-05-16T00:49:38.553Z,102533.55
2019-05-16T00:52:48.754Z,102528.14
2019-05-16T00:55:58.491Z,102532.02
2019-05-16T00:59:18.395Z,102525.22
2019-05-16T01:02:28.873Z,102527.39
2019-05-16T01:05:38.863Z,102526.40
2019-05-16T01:08:48.818Z,102516.73
2019-05-16T01:12:09.327Z,102505.53
2019-05-16T01:15:18.524Z,102500.23
2019-05-16T01:18:38.039Z,102497.63
2019-05-16T01:21:48.334Z,102498.92
2019-05-16T01:24:58.484Z,102497.48
2019-05-16T01:28:17.985Z,102489.24
2019-05-16T01:31:27.993Z,102491.59
2019-05-16T01:34:37.768Z,102493.23
2019-05-16T01:37:48.600Z,102483.16
2019-05-16T01:40:58.318Z,102479.28
2019-05-16T01:44:07.886Z,102477.58
2019-05-16T01:47:18.281Z,102478.16
2019-05-16T01:50:28.403Z,102475.52
2019-05-16T01:53:39.334Z,102473.75
2019-05-16T01:56:48.050Z,102468.20
2019-05-16T02:00:08.458Z,102459.70
2019-05-16T02:03:19.009Z,102455.00
2019-05-16T02:06:28.791Z,102447.74
2019-05-16T02:09:38.418Z,102446.69
2019-05-16T02:12:48.996Z,102445.73
2019-05-16T02:15:59.330Z,102437.61
2019-05-16T02:19:18.890Z,102433.35
2019-05-16T02:22:39.064Z,102431.65
2019-05-16T02:25:49.059Z,102432.30
2019-05-16T02:29:00.897Z,102420.64
2019-05-16T02:32:22.237Z,102424.07
2019-05-16T02:35:31.368Z,102424.19
2019-05-16T02:38:42.322Z,102425.06
2019-05-16T02:41:52.008Z,102421.72
2019-05-16T02:45:02.409Z,102428.62
2019-05-16T02:48:11.291Z,102419.34
2019-05-16T02:51:21.265Z,102417.02
2019-05-16T02:54:31.627Z,102415.31
2019-05-16T02:57:41.524Z,102412.59
2019-05-16T03:00:51.485Z,102413.47
2019-05-16T03:04:01.693Z,102410.91
2019-05-16T03:07:17.183Z,102395.11
2019-05-16T03:10:31.707Z,102401.80
2019-05-16T03:13:51.375Z,102401.95
2019-05-16T03:17:07.846Z,102396.37
2019-05-16T03:20:16.565Z,102396.75
2019-05-16T03:23:25.196Z,102393.11
2019-05-16T03:26:33.827Z,102383.80
2019-05-16T03:29:42.474Z,102385.89
2019-05-16T03:33:04.866Z,102380.04
2019-05-16T03:36:14.857Z,102374.91
2019-05-16T03:39:21.879Z,102370.30
2019-05-16T03:42:31.168Z,102371.70
2019-05-16T03:45:52.149Z,102365.48
2019-05-16T03:49:02.390Z,102370.42
2019-05-16T03:52:11.361Z,102359.29
2019-05-16T03:55:32.513Z,102348.34
2019-05-16T03:58:41.599Z,102348.13
2019-05-16T04:01:51.051Z,102344.28
2019-05-16T04:05:11.167Z,102340.16
2019-05-16T04:08:24.427Z,102345.19
2019-05-16T04:11:32.079Z,102341.84
2019-05-16T04:14:41.169Z,102334.75
2019-05-16T04:17:51.275Z,102338.36
2019-05-16T04:21:00.998Z,102329.92
2019-05-16T04:24:12.137Z,102335.53
2019-05-16T04:27:21.439Z,102336.03
2019-05-16T04:30:31.236Z,102336.08
2019-05-16T04:33:41.547Z,102331.73
2019-05-16T04:36:51.372Z,102336.70
2019-05-16T04:40:01.315Z,102330.70
2019-05-16T04:43:22.164Z,102323.96
2019-05-16T04:46:31.593Z,102323.45
2019-05-16T04:49:51.910Z,102328.27
2019-05-16T04:53:01.339Z,102331.05
2019-05-16T04:56:11.067Z,102326.02
2019-05-16T04:59:20.837Z,102325.77
2019-05-16T05:02:31.017Z,102322.56
2019-05-16T05:05:41.435Z,102323.72
2019-05-16T05:08:57.952Z,102330.21
2019-05-16T05:12:04.283Z,102321.45
2019-05-16T05:15:11.827Z,102319.45
2019-05-16T05:18:21.454Z,102319.30
2019-05-16T05:21:31.414Z,102306.97
2019-05-16T05:24:40.715Z,102309.83
2019-05-16T05:27:50.071Z,102301.72
2019-05-16T05:30:59.713Z,102305.47
2019-05-16T05:34:10.630Z,102299.86
2019-05-16T05:37:20.416Z,102309.38
2019-05-16T05:40:29.668Z,102301.98
2019-05-16T05:43:39.759Z,102307.44
2019-05-16T05:47:00.575Z,102303.14
2019-05-16T05:50:11.178Z,102298.61
2019-05-16T05:53:20.752Z,102303.55
2019-05-16T05:56:30.528Z,102296.28
2019-05-16T05:59:40.433Z,102295.93
2019-05-16T06:03:00.130Z,102291.08
2019-05-16T06:06:21.029Z,102289.88
2019-05-16T06:09:33.138Z,102292.59
2019-05-16T06:12:41.872Z,102287.52
2019-05-16T06:15:51.513Z,102287.23
2019-05-16T06:19:00.910Z,102286.92
2019-05-16T06:22:10.269Z,102287.56
2019-05-16T06:25:22.861Z,102293.52
2019-05-16T06:28:30.787Z,102289.08
2019-05-16T06:31:40.876Z,102286.03
2019-05-16T06:35:00.275Z,102283.00
2019-05-16T06:38:20.935Z,102276.05
2019-05-16T06:41:40.227Z,102270.32
2019-05-16T06:44:50.385Z,102265.21
2019-05-16T06:48:00.826Z,102271.48
2019-05-16T06:51:10.792Z,102262.98
2019-05-16T06:54:20.765Z,102271.47
2019-05-16T06:57:30.334Z,102270.63
2019-05-16T07:00:40.630Z,102261.69
2019-05-16T07:03:50.760Z,102259.19
2019-05-16T07:07:02.802Z,102262.05
2019-05-16T07:10:11.027Z,102261.22
2019-05-16T07:13:30.498Z,102257.16
2019-05-16T07:16:40.479Z,102249.19
2019-05-16T07:20:00.751Z,102239.36
2019-05-16T07:23:10.162Z,102246.34
2019-05-16T07:26:34.099Z,102234.80
2019-05-16T07:29:42.747Z,102231.41
2019-05-16T07:32:51.361Z,102222.97
2019-05-16T07:36:00.510Z,102228.20
2019-05-16T07:39:10.808Z,102230.44
2019-05-16T07:42:20.083Z,102224.82
2019-05-16T07:45:40.671Z,102221.09
2019-05-16T07:48:51.867Z,102229.06
2019-05-16T07:52:00.587Z,102226.87
2019-05-16T07:55:10.841Z,102219.77
2019-05-16T07:58:21.724Z,102207.55
2019-05-16T08:01:30.747Z,102213.97
2019-05-16T08:04:40.561Z,102215.66
2019-05-16T08:07:51.149Z,102207.54
2019-05-16T08:11:01.486Z,102208.56
2019-05-16T08:14:10.409Z,102202.61
2019-05-16T08:17:21.427Z,102197.19
2019-05-16T08:20:31.314Z,102200.75
2019-05-16T08:23:41.233Z,102203.45
2019-05-16T08:26:51.394Z,102198.91
2019-05-16T08:30:02.521Z,102188.58
2019-05-16T08:36:31.680Z,102186.88
2019-05-16T08:39:50.981Z,102181.12
2019-05-16T08:43:01.324Z,102177.05
2019-05-16T08:46:23.031Z,102168.09
2019-05-16T08:49:31.607Z,102172.48
2019-05-16T08:52:43.625Z,102167.23
2019-05-16T08:55:50.994Z,102164.88
2019-05-16T08:59:02.656Z,102163.52
2019-05-16T09:02:12.542Z,102153.54
2019-05-16T09:05:22.693Z,102153.02
2019-05-16T09:08:41.804Z,102148.45
2019-05-16T09:10:41.043Z,102189.77
2019-05-16T09:11:50.326Z,102133.88
2019-05-16T09:15:00.423Z,102140.14
2019-05-16T09:18:09.307Z,102128.61
2019-05-16T09:21:18.449Z,102118.29
2019-05-16T09:24:27.392Z,102112.72
2019-05-16T09:27:37.830Z,102110.33
2019-05-16T09:30:46.915Z,102110.17
2019-05-16T09:33:56.768Z,102091.73
2019-05-16T09:37:08.226Z,102085.14
2019-05-16T09:40:17.294Z,102075.15
2019-05-16T09:43:28.032Z,102066.50
2019-05-16T09:46:37.608Z,102062.77
2019-05-16T09:49:47.484Z,102071.56
2019-05-16T09:52:56.835Z,102061.91
2019-05-16T09:56:07.085Z,102053.08
2019-05-16T09:59:17.263Z,102058.81
2019-05-16T10:02:27.381Z,102056.58
2019-05-16T10:05:57.964Z,102052.01
2019-05-16T10:09:08.617Z,102053.50
2019-05-16T10:12:18.707Z,102052.31
2019-05-16T10:15:28.783Z,102058.58
2019-05-16T10:18:37.553Z,102052.61
2019-05-16T10:21:46.243Z,102047.48
2019-05-16T10:24:53.368Z,102049.05
2019-05-16T10:28:02.006Z,102048.92
2019-05-16T10:31:10.935Z,102043.33
2019-05-16T10:34:19.680Z,102049.47
2019-05-16T10:37:28.382Z,102044.55
2019-05-16T10:40:37.085Z,102037.61
2019-05-16T10:43:47.512Z,102046.50
2019-05-16T10:47:17.036Z,102044.13
2019-05-16T10:50:27.652Z,102061.43
2019-05-16T10:54:08.833Z,102049.75
2019-05-16T10:57:15.276Z,102047.91
2019-05-16T11:00:57.226Z,102056.34
2019-05-16T11:03:37.520Z,102069.44
2019-05-16T11:06:46.662Z,102060.48
2019-05-16T11:10:03.235Z,102056.52
2019-05-16T11:13:10.209Z,102040.66
2019-05-16T11:16:19.159Z,102032.11
2019-05-16T11:19:33.777Z,102013.82
2019-05-16T11:22:47.698Z,102006.24
2019-05-16T11:25:58.596Z,101990.48
2019-05-16T11:29:08.383Z,101994.81
2019-05-16T11:32:18.530Z,101993.28
2019-05-16T11:35:38.292Z,101984.83
2019-05-16T11:38:47.674Z,101994.44
2019-05-16T11:41:57.204Z,101996.80
2019-05-16T11:45:09.185Z,101985.99
2019-05-16T11:48:17.582Z,101977.58
2019-05-16T11:51:27.132Z,101964.12
2019-05-16T11:54:37.402Z,101960.97
2019-05-16T11:57:47.685Z,101964.03
2019-05-16T12:00:57.560Z,101950.39
2019-05-16T12:04:17.356Z,101945.37
2019-05-16T12:07:33.462Z,101947.72
2019-05-16T12:10:37.094Z,101949.23
2019-05-16T12:13:47.590Z,101953.82
2019-05-16T12:16:56.904Z,101947.06
2019-05-16T12:20:20.039Z,101938.27
2019-05-16T12:23:28.693Z,101939.42
2019-05-16T12:26:37.423Z,101942.28
2019-05-16T12:29:50.214Z,101925.06
2019-05-16T12:32:58.098Z,101923.69
2019-05-16T12:36:08.849Z,101913.88
2019-05-16T12:39:17.573Z,101903.89
2019-05-16T12:42:27.056Z,101901.18
2019-05-16T12:45:38.446Z,101901.52
2019-05-16T12:48:47.412Z,101891.05
2019-05-16T12:52:06.872Z,101870.43
2019-05-16T12:55:33.453Z,101878.22
2019-05-16T12:58:42.765Z,101867.05
2019-05-16T13:01:51.572Z,101863.85
2019-05-16T13:05:00.928Z,101848.84
2019-05-16T13:08:09.629Z,101843.94
2019-05-16T13:11:18.297Z,101831.27
2019-05-16T13:14:27.948Z,101830.56
2019-05-16T13:17:47.494Z,101823.47
2019-05-16T13:21:07.500Z,101827.99
2019-05-16T13:24:18.604Z,101819.72
2019-05-16T13:27:25.580Z,101815.12
2019-05-16T13:30:34.310Z,101806.75
2019-05-16T13:33:43.221Z,101796.32
2019-05-16T13:36:52.045Z,101784.12
2019-05-16T13:40:00.766Z,101782.37
2019-05-16T13:43:10.442Z,101767.30
2019-05-16T13:46:19.240Z,101758.36
2019-05-16T13:49:27.970Z,101753.08
2019-05-16T13:52:36.603Z,101747.52
2019-05-16T13:55:45.620Z,101739.88
2019-05-16T13:58:56.875Z,101731.73
2019-05-16T14:02:04.102Z,101744.33
2019-05-16T14:05:17.676Z,101748.03
2019-05-16T14:08:26.849Z,101742.45
2019-05-16T14:11:36.480Z,101739.47
2019-05-16T14:14:47.636Z,101741.11
2019-05-16T14:17:56.804Z,101743.41
2019-05-16T14:21:06.940Z,101736.30
2019-05-16T14:24:18.090Z,101737.77
2019-05-16T14:27:26.955Z,101744.05
2019-05-16T14:30:37.174Z,101739.16
2019-05-16T14:33:47.401Z,101731.20
2019-05-16T14:36:57.849Z,101720.83
2019-05-16T14:40:07.369Z,101728.97
2019-05-16T14:43:17.094Z,101736.12
2019-05-16T14:46:27.390Z,101726.23
2019-05-16T14:49:37.380Z,101732.11
2019-05-16T14:52:47.367Z,101718.66
2019-05-16T14:56:07.198Z,101712.33
2019-05-16T14:59:15.940Z,101715.05
2019-05-16T15:02:34.644Z,101706.84
2019-05-16T15:05:43.378Z,101702.77
2019-05-16T15:08:52.460Z,101688.46
2019-05-16T15:12:01.086Z,101682.39
2019-05-16T15:15:24.181Z,101684.27
2019-05-16T15:18:21.542Z,101686.12
2019-05-16T15:21:31.051Z,101684.22
2019-05-16T15:24:49.866Z,101686.88
2019-05-16T15:28:00.544Z,101688.81
2019-05-16T15:31:08.751Z,101686.10
2019-05-16T15:34:19.187Z,101682.50
2019-05-16T15:37:27.806Z,101677.22
2019-05-16T15:40:37.708Z,101672.23
2019-05-16T15:43:46.752Z,101669.10
2019-05-16T15:46:56.627Z,101667.27
2019-05-16T15:50:08.050Z,101671.02
2019-05-16T15:53:17.659Z,101669.95
2019-05-16T15:56:27.208Z,101673.87
2019-05-16T15:59:37.538Z,101683.79
2019-05-16T16:02:48.239Z,101678.73
2019-05-16T16:05:56.491Z,101670.22
2019-05-16T16:09:06.947Z,101672.10
2019-05-16T16:12:16.976Z,101669.09
2019-05-16T16:15:24.411Z,101667.80
2019-05-16T16:18:32.972Z,101667.64
2019-05-16T16:21:41.586Z,101677.73
2019-05-16T16:25:00.443Z,101670.53
2019-05-16T16:28:10.410Z,101675.20
2019-05-16T16:31:19.107Z,101674.20
2019-05-16T16:34:27.667Z,101671.77
2019-05-16T16:37:37.822Z,101672.11
2019-05-16T16:40:48.022Z,101676.91
2019-05-16T16:44:07.656Z,101674.66
2019-05-16T16:47:17.597Z,101672.77
2019-05-16T16:50:37.183Z,101676.91
2019-05-16T16:53:46.816Z,101675.97
2019-05-16T16:56:55.734Z,101666.59
2019-05-16T17:00:04.352Z,101673.03
2019-05-16T17:03:12.884Z,101672.27
2019-05-16T17:06:21.508Z,101669.11
2019-05-16T17:09:30.237Z,101672.23
2019-05-16T17:12:42.547Z,101663.11
2019-05-16T17:15:49.166Z,101670.56
2019-05-16T17:19:08.026Z,101661.91
2019-05-16T17:22:20.776Z,101670.73
2019-05-16T17:25:28.494Z,101664.14
2019-05-16T17:28:37.653Z,101661.59
2019-05-16T17:31:54.073Z,101647.72
2019-05-16T17:34:56.626Z,101662.86
2019-05-16T17:38:06.789Z,101660.03
2019-05-16T17:41:16.801Z,101650.23
2019-05-16T17:44:27.169Z,101656.48
2019-05-16T17:47:37.052Z,101654.85
2019-05-16T17:50:56.997Z,101657.16
2019-05-16T17:54:06.587Z,101662.12
2019-05-16T17:57:27.523Z,101648.27
2019-05-16T18:00:36.239Z,101651.82
2019-05-16T18:03:44.945Z,101655.03
2019-05-16T18:06:53.567Z,101659.43
2019-05-16T18:10:02.224Z,101666.25
2019-05-16T18:13:10.847Z,101669.97
2019-05-16T18:16:19.494Z,101666.94
2019-05-16T18:19:28.111Z,101667.99
2019-05-16T18:22:36.842Z,101673.24
2019-05-16T18:25:46.982Z,101667.15
2019-05-16T18:29:06.852Z,101666.98
2019-05-16T18:32:17.045Z,101669.19
2019-05-16T18:35:27.164Z,101674.55
2019-05-16T18:38:46.653Z,101677.92
2019-05-16T18:41:56.551Z,101674.89
2019-05-16T18:45:07.319Z,101675.91
2019-05-16T18:48:27.243Z,101677.75
2019-05-16T18:51:36.974Z,101684.08
2019-05-16T18:54:57.602Z,101676.94
2019-05-16T18:58:08.678Z,101693.39
2019-05-16T19:01:17.544Z,101686.96
2019-05-16T19:04:26.986Z,101685.14
2019-05-16T19:07:37.004Z,101693.25
2019-05-16T19:10:47.319Z,101686.49
2019-05-16T19:13:56.785Z,101690.72
2019-05-16T19:17:20.717Z,101684.50
2019-05-16T19:20:18.678Z,101682.14
2019-05-16T19:23:27.197Z,101675.55
2019-05-16T19:26:37.235Z,101682.81
2019-05-16T19:29:46.181Z,101678.59
2019-05-16T19:32:57.360Z,101692.14
2019-05-16T19:36:16.557Z,101690.59
2019-05-16T19:39:26.014Z,101689.27
2019-05-16T19:42:36.805Z,101683.66
2019-05-16T19:45:46.564Z,101687.04
2019-05-16T19:49:06.472Z,101680.65
2019-05-16T19:52:16.386Z,101683.86
2019-05-16T19:55:36.537Z,101687.24
2019-05-16T19:58:46.759Z,101688.42
2019-05-16T20:01:56.957Z,101692.51
2019-05-16T20:05:06.431Z,101689.64
2019-05-16T20:08:17.355Z,101688.14
2019-05-16T20:11:27.487Z,101679.66
2019-05-16T20:14:36.648Z,101683.75
2019-05-16T20:17:58.653Z,101684.91
2019-05-16T20:21:05.710Z,101682.54
2019-05-16T20:24:16.574Z,101679.36
2019-05-16T20:27:27.223Z,101682.73
2019-05-16T20:30:37.149Z,101684.77
2019-05-16T20:33:46.885Z,101677.02
2019-05-16T20:36:57.192Z,101682.39
2019-05-16T20:40:08.490Z,101673.30
2019-05-16T20:43:16.844Z,101676.65
2019-05-16T20:46:26.753Z,101670.59
2019-05-16T20:49:37.355Z,101666.53
2019-05-16T20:52:46.631Z,101670.59
2019-05-16T20:55:57.328Z,101671.43
2019-05-16T20:59:20.890Z,101667.89
2019-05-16T21:02:29.429Z,101668.42
2019-05-16T21:05:38.533Z,101673.99
2019-05-16T21:08:49.688Z,101669.77
2019-05-16T21:11:57.542Z,101665.38
2019-05-16T21:15:06.707Z,101660.63
2019-05-16T21:18:16.668Z,101660.30
2019-05-16T21:21:27.408Z,101658.12
2019-05-16T21:24:37.302Z,101650.66
2019-05-16T21:27:46.525Z,101647.47
2019-05-16T21:30:56.842Z,101642.58
2019-05-16T21:34:07.144Z,101643.08
2019-05-16T21:37:17.972Z,101638.19
2019-05-16T21:40:26.841Z,101640.37
2019-05-16T21:43:37.492Z,101634.46
2019-05-16T21:46:46.932Z,101633.28
2019-05-16T21:49:56.817Z,101629.54
2019-05-16T21:53:07.319Z,101620.11
2019-05-16T21:56:17.641Z,101628.19
2019-05-16T21:59:28.768Z,101613.32
2019-05-16T22:02:47.028Z,101617.85
2019-05-16T22:05:57.592Z,101619.06
2019-05-16T22:09:08.017Z,101610.11
2019-05-16T22:12:26.997Z,101608.93
2019-05-16T22:15:36.723Z,101607.41
2019-05-16T22:18:47.355Z,101598.66
2019-05-16T22:21:56.432Z,101599.81
2019-05-16T22:25:07.476Z,101591.91
2019-05-16T22:28:17.199Z,101591.70
2019-05-16T22:31:26.949Z,101587.00
2019-05-16T22:34:36.910Z,101579.73
2019-05-16T22:37:59.246Z,101572.78
2019-05-16T22:41:07.342Z,101575.52
2019-05-16T22:44:17.683Z,101574.47
2019-05-16T22:47:26.699Z,101564.88
2019-05-16T22:50:36.501Z,101571.77
2019-05-16T22:53:45.394Z,101573.45
2019-05-16T22:56:54.209Z,101559.09
2019-05-16T23:00:02.987Z,101557.75
2019-05-16T23:03:13.632Z,101557.75
2019-05-16T23:06:22.208Z,101551.84
2019-05-16T23:09:30.943Z,101547.73
2019-05-16T23:12:39.697Z,101536.80
2019-05-16T23:15:48.310Z,101534.56
2019-05-16T23:19:07.204Z,101527.12
2019-05-16T23:22:16.720Z,101532.23
2019-05-16T23:25:25.448Z,101532.75
2019-05-16T23:28:36.566Z,101532.95
2019-05-16T23:31:47.013Z,101530.89
2019-05-16T23:34:57.103Z,101530.55
2019-05-16T23:38:16.436Z,101528.52
2019-05-16T23:41:17.254Z,101523.97
2019-05-16T23:44:26.389Z,101516.70
2019-05-16T23:47:36.576Z,101512.30
2019-05-16T23:50:47.373Z,101512.14
2019-05-16T23:53:57.018Z,101509.61
2019-05-16T23:57:16.161Z,101504.53
